Time;durP1;ratioP1;P1;durP2;ratioP2;P2;SDS_P1;SDS_P2;PMS_P1;PMS_P2;Temp;Humidity;BMP_temperature;BMP_pressure;BME280_temperature;BME280_humidity;BME280_pressure;Samples;Min_cycle;Max_cycle;Signal;HPM_P1;HPM_P2
2021/08/30 00:01:52;;;;;;;5.40;2.60;;;;;;;14.33;100.00;94642.13;5098742;28;20052;-68
2021/08/30 00:04:19;;;;;;;7.10;3.85;;;;;;;14.36;100.00;94645.28;5098568;28;20402;-68
2021/08/30 00:06:48;;;;;;;5.72;3.67;;;;;;;14.39;100.00;94650.00;5096384;28;20093;-68
2021/08/30 00:09:16;;;;;;;5.05;3.25;;;;;;;14.38;100.00;94643.19;5102736;28;20039;-68
2021/08/30 00:11:43;;;;;;;5.88;3.45;;;;;;;14.17;100.00;94648.38;5101530;27;20047;-68
2021/08/30 00:14:10;;;;;;;6.43;4.03;;;;;;;14.20;100.00;94647.84;5097087;28;20069;-68
2021/08/30 00:16:36;;;;;;;4.65;2.53;;;;;;;14.23;100.00;94652.56;5097915;28;20044;-68
2021/08/30 00:19:04;;;;;;;6.57;3.67;;;;;;;14.22;100.00;94660.69;5099835;28;20466;-68
2021/08/30 00:21:30;;;;;;;5.68;3.08;;;;;;;14.13;100.00;94657.78;5098359;28;20055;-68
2021/08/30 00:23:57;;;;;;;6.85;3.20;;;;;;;14.13;100.00;94652.53;5097157;28;20100;-68
2021/08/30 00:26:24;;;;;;;7.13;3.78;;;;;;;14.04;100.00;94648.84;5100963;28;20035;-69
2021/08/30 00:28:51;;;;;;;3.15;2.33;;;;;;;13.98;100.00;94644.66;5098383;28;20047;-68
2021/08/30 00:31:17;;;;;;;7.28;3.40;;;;;;;14.08;100.00;94649.91;5095373;28;20048;-69
2021/08/30 00:33:44;;;;;;;7.43;3.92;;;;;;;14.08;100.00;94660.38;5096570;28;20036;-68
2021/08/30 00:36:11;;;;;;;6.18;3.15;;;;;;;13.99;100.00;94656.69;5097035;28;20040;-69
2021/08/30 00:38:38;;;;;;;7.68;3.17;;;;;;;13.86;100.00;94657.94;5099505;28;20043;-68
2021/08/30 00:41:05;;;;;;;6.95;3.75;;;;;;;13.84;100.00;94666.03;5099294;28;20552;-68
2021/08/30 00:43:32;;;;;;;5.53;3.38;;;;;;;13.72;100.00;94652.38;5093622;28;20036;-68
2021/08/30 00:46:00;;;;;;;5.32;2.63;;;;;;;13.84;100.00;94666.03;5101228;28;20039;-68
2021/08/30 00:48:27;;;;;;;5.15;2.03;;;;;;;13.92;100.00;94673.41;5098887;28;20070;-68
2021/08/30 00:50:55;;;;;;;5.35;2.67;;;;;;;13.65;100.00;94641.34;5096853;28;20036;-68
2021/08/30 00:53:22;;;;;;;4.28;3.15;;;;;;;13.70;100.00;94659.69;5098233;28;20122;-68
2021/08/30 00:55:50;;;;;;;7.20;3.53;;;;;;;13.76;100.00;94666.53;5098378;28;20028;-69
2021/08/30 00:58:17;;;;;;;7.55;3.97;;;;;;;13.75;100.00;94662.34;5102345;28;20044;-68
2021/08/30 01:00:44;;;;;;;5.43;3.42;;;;;;;13.80;100.00;94664.97;5098771;28;20039;-68
2021/08/30 01:03:11;;;;;;;3.78;2.58;;;;;;;13.91;100.00;94660.56;5096007;28;20497;-69
2021/08/30 01:05:45;;;;;;;6.95;3.08;;;;;;;13.78;100.00;94661.84;5102071;28;20039;-68
2021/08/30 01:08:20;;;;;;;4.85;2.55;;;;;;;13.74;100.00;94666.00;5099506;28;20578;-68
2021/08/30 01:11:10;;;;;;;6.40;3.78;;;;;;;13.69;100.00;94664.13;5097568;28;20424;-68
2021/08/30 01:13:45;;;;;;;3.90;2.60;;;;;;;13.62;100.00;94662.81;5094610;28;20096;-68
2021/08/30 01:16:13;;;;;;;6.53;3.58;;;;;;;13.55;100.00;94663.78;5095992;28;20039;-69
2021/08/30 01:18:41;;;;;;;5.03;2.83;;;;;;;13.58;100.00;94668.53;5097674;28;20587;-69
2021/08/30 01:21:18;;;;;;;4.53;2.55;;;;;;;13.60;100.00;94664.88;5095504;28;20053;-68
2021/08/30 01:24:07;;;;;;;5.65;3.20;;;;;;;13.50;100.00;94671.59;5091912;28;20825;-68
2021/08/30 01:26:39;;;;;;;3.90;2.17;;;;;;;13.44;100.00;94675.25;5098794;28;20064;-68
2021/08/30 01:29:28;;;;;;;5.38;3.05;;;;;;;13.48;100.00;94671.09;5102371;28;20040;-68
2021/08/30 01:32:10;;;;;;;4.50;2.63;;;;;;;13.31;100.00;94662.63;5095833;28;20493;-68
2021/08/30 01:34:39;;;;;;;4.30;2.83;;;;;;;13.19;100.00;94660.91;5089892;28;20123;-68
2021/08/30 01:37:06;;;;;;;4.85;3.03;;;;;;;13.37;100.00;94677.28;5095862;28;20044;-68
2021/08/30 01:39:33;;;;;;;3.85;2.72;;;;;;;13.38;100.00;94678.88;5102484;28;20050;-68
2021/08/30 01:42:01;;;;;;;3.55;2.42;;;;;;;13.28;100.00;94678.78;5092784;28;20116;-68
2021/08/30 01:44:29;;;;;;;5.45;2.75;;;;;;;13.26;100.00;94686.09;5099296;28;20042;-68
2021/08/30 01:46:57;;;;;;;4.32;2.95;;;;;;;13.28;100.00;94678.78;5098621;28;20039;-68
2021/08/30 01:49:26;;;;;;;4.03;2.55;;;;;;;13.26;100.00;94691.31;5094474;28;20056;-68
2021/08/30 01:51:54;;;;;;;3.83;2.40;;;;;;;13.26;100.00;94696.56;5095916;28;20109;-68
2021/08/30 01:54:23;;;;;;;5.25;2.60;;;;;;;13.20;100.00;94683.44;5096385;28;20036;-67
2021/08/30 01:56:52;;;;;;;7.65;3.25;;;;;;;13.34;100.00;94693.47;5097571;28;20066;-67
2021/08/30 02:02:07;;;;;;;5.47;2.85;;;;;;;13.27;100.00;94698.09;5099875;28;20047;-68
2021/08/30 02:04:35;;;;;;;5.85;3.80;;;;;;;13.31;100.00;94699.25;5095021;28;20068;-68
2021/08/30 02:07:04;;;;;;;5.05;2.97;;;;;;;13.32;100.00;94690.34;5099615;28;20039;-68
2021/08/30 02:09:31;;;;;;;5.10;2.10;;;;;;;13.37;100.00;94693.75;5095880;28;20036;-68
2021/08/30 02:11:58;;;;;;;5.72;2.55;;;;;;;13.41;100.00;94695.88;5095840;28;20066;-68
2021/08/30 02:14:25;;;;;;;2.55;2.08;;;;;;;13.40;100.00;94702.97;5093949;28;20040;-69
2021/08/30 02:16:55;;;;;;;4.88;2.72;;;;;;;13.26;100.00;94696.56;5098939;28;20105;-68
2021/08/30 02:19:41;;;;;;;4.20;2.80;;;;;;;13.32;100.00;94700.78;5092616;28;20054;-69
2021/08/30 02:22:19;;;;;;;5.30;3.45;;;;;;;13.29;100.00;94702.06;5094637;28;20043;-68
2021/08/30 02:24:52;;;;;;;5.43;3.05;;;;;;;13.15;100.00;94695.69;5094610;28;20048;-69
2021/08/30 02:27:57;;;;;;;3.28;1.88;;;;;;;13.03;100.00;94695.06;5098387;28;20483;-68
2021/08/30 02:30:30;;;;;;;3.65;2.10;;;;;;;13.08;100.00;94695.88;5067963;28;20112;-68
2021/08/30 02:33:02;;;;;;;3.83;2.30;;;;;;;13.04;100.00;94704.50;5095794;28;20040;-68
2021/08/30 02:35:31;;;;;;;3.53;1.90;;;;;;;12.99;100.00;94703.38;5097026;28;20097;-68
2021/08/30 02:37:59;;;;;;;3.75;2.22;;;;;;;13.07;100.00;94715.25;5092358;28;20503;-69
2021/08/30 02:40:27;;;;;;;4.43;1.98;;;;;;;13.04;100.00;94718.34;5091094;28;20047;-69
2021/08/30 02:42:57;;;;;;;3.38;2.00;;;;;;;12.90;100.00;94717.16;5089448;28;20043;-68
2021/08/30 02:45:25;;;;;;;3.63;2.17;;;;;;;12.85;100.00;94722.34;5091927;28;20100;-68
2021/08/30 02:47:53;;;;;;;4.68;2.47;;;;;;;12.89;100.00;94712.97;5097088;28;20101;-69
2021/08/30 02:50:22;;;;;;;3.28;2.00;;;;;;;12.87;100.00;94720.28;5088302;28;20036;-68
2021/08/30 02:52:51;;;;;;;3.05;1.92;;;;;;;12.78;100.00;94707.66;5091747;28;20413;-68
2021/08/30 02:55:19;;;;;;;5.03;2.15;;;;;;;12.81;100.00;94716.81;5097784;28;20082;-68
2021/08/30 02:57:49;;;;;;;4.75;1.80;;;;;;;12.77;100.00;94715.75;5098162;28;20036;-68
2021/08/30 03:00:18;;;;;;;3.35;2.38;;;;;;;12.76;100.00;94714.94;5095814;28;20405;-68
2021/08/30 03:02:46;;;;;;;3.13;2.25;;;;;;;12.67;100.00;94716.41;5100438;28;20067;-68
2021/08/30 03:05:14;;;;;;;3.72;1.85;;;;;;;12.70;100.00;94709.94;5093713;28;20062;-68
2021/08/30 03:07:43;;;;;;;3.53;2.75;;;;;;;12.61;100.00;94712.19;5095515;28;20108;-68
2021/08/30 03:10:10;;;;;;;3.33;2.22;;;;;;;12.72;100.00;94721.69;5094395;28;20044;-68
2021/08/30 03:12:40;;;;;;;2.80;1.48;;;;;;;12.68;100.00;94725.84;5096143;28;20088;-68
2021/08/30 03:15:11;;;;;;;3.67;2.58;;;;;;;12.62;100.00;94714.56;5090913;28;20047;-68
2021/08/30 03:17:42;;;;;;;3.90;1.73;;;;;;;12.60;100.00;94721.88;5091470;28;20432;-69
2021/08/30 03:20:15;;;;;;;4.57;2.22;;;;;;;12.56;100.00;94725.19;5094343;28;20132;-68
2021/08/30 03:22:43;;;;;;;3.97;2.40;;;;;;;12.59;100.00;94735.16;5097251;28;20043;-69
2021/08/30 03:25:14;;;;;;;2.78;1.85;;;;;;;12.55;100.00;94734.88;5094297;28;20059;-68
2021/08/30 03:27:46;;;;;;;3.42;2.08;;;;;;;12.52;100.00;94734.56;5101360;28;20070;-69
2021/08/30 03:30:17;;;;;;;3.05;1.60;;;;;;;12.54;100.00;94737.72;5097081;28;20055;-69
2021/08/30 03:32:45;;;;;;;2.85;1.17;;;;;;;12.40;100.00;94719.78;5099481;28;20043;-68
2021/08/30 03:35:14;;;;;;;4.78;2.17;;;;;;;12.43;100.00;94727.16;5095267;28;20560;-68
2021/08/30 03:37:42;;;;;;;3.03;1.65;;;;;;;12.46;100.00;94725.09;5098269;28;20050;-69
2021/08/30 03:40:14;;;;;;;6.47;1.48;;;;;;;12.31;100.00;94744.78;5101042;28;20051;-69
2021/08/30 03:42:42;;;;;;;3.30;1.83;;;;;;;12.30;100.00;94737.16;5102412;28;20040;-69
2021/08/30 03:45:10;;;;;;;4.93;1.58;;;;;;;12.32;100.00;94746.34;5099570;28;20051;-68
2021/08/30 03:47:38;;;;;;;3.85;2.03;;;;;;;12.33;100.00;94742.69;5102789;28;20477;-68
2021/08/30 03:50:06;;;;;;;3.63;1.83;;;;;;;12.33;100.00;94747.91;5102433;28;20438;-68
2021/08/30 03:52:34;;;;;;;3.42;1.85;;;;;;;12.26;100.00;94744.69;5099026;28;20047;-68
2021/08/30 03:55:01;;;;;;;4.43;2.90;;;;;;;12.29;100.00;94756.50;5095698;28;20412;-68
2021/08/30 03:57:29;;;;;;;3.17;1.83;;;;;;;12.25;100.00;94745.75;5095706;28;20055;-68
2021/08/30 03:59:58;;;;;;;3.10;2.28;;;;;;;12.22;100.00;94747.00;5104508;28;20047;-68
2021/08/30 04:02:29;;;;;;;4.43;2.40;;;;;;;12.29;100.00;94752.06;5093070;28;20051;-69
2021/08/30 04:04:57;;;;;;;3.83;1.88;;;;;;;12.32;100.00;94762.03;5099957;28;20440;-69
2021/08/30 04:07:25;;;;;;;4.88;1.67;;;;;;;12.39;100.00;94756.63;5098710;28;20508;-69
2021/08/30 04:09:52;;;;;;;5.00;3.05;;;;;;;12.42;100.00;94749.09;5099987;28;20130;-69
2021/08/30 04:12:19;;;;;;;4.22;2.80;;;;;;;12.38;100.00;94750.59;5097340;28;20130;-69
2021/08/30 04:14:48;;;;;;;4.05;2.55;;;;;;;12.45;100.00;94760.09;5098136;28;20431;-69
2021/08/30 04:17:15;;;;;;;2.80;2.00;;;;;;;12.36;100.00;94746.66;5093458;28;20561;-69
2021/08/30 04:19:42;;;;;;;3.13;1.85;;;;;;;12.38;100.00;94755.81;5092342;28;20094;-69
2021/08/30 04:22:10;;;;;;;3.70;1.95;;;;;;;12.40;100.00;94748.53;5101004;28;20044;-69
2021/08/30 04:24:36;;;;;;;5.22;2.80;;;;;;;12.47;100.00;94758.00;5100962;28;20047;-68
2021/08/30 04:27:04;;;;;;;4.03;2.47;;;;;;;12.46;100.00;94764.25;5099737;28;20497;-69
2021/08/30 04:29:33;;;;;;;2.75;1.70;;;;;;;12.43;100.00;94755.88;5091895;28;20055;-69
2021/08/30 04:32:00;;;;;;;3.90;2.35;;;;;;;12.42;100.00;94762.16;5094484;28;20044;-69
2021/08/30 04:34:27;;;;;;;2.15;1.77;;;;;;;12.51;100.00;94774.78;5102781;28;20032;-69
2021/08/30 04:36:54;;;;;;;3.33;1.52;;;;;;;12.40;100.00;94764.19;5089658;28;20644;-69
2021/08/30 04:39:21;;;;;;;2.53;1.48;;;;;;;12.48;100.00;94773.44;5097287;28;20035;-70
2021/08/30 04:41:48;;;;;;;3.40;1.80;;;;;;;12.46;100.00;94764.25;5089850;28;20406;-69
2021/08/30 04:44:16;;;;;;;4.28;2.40;;;;;;;12.50;100.00;94773.22;5092496;28;20047;-70
2021/08/30 04:46:43;;;;;;;4.10;1.33;;;;;;;12.51;100.00;94780.00;5100615;28;20039;-70
2021/08/30 04:49:10;;;;;;;2.53;1.60;;;;;;;12.30;100.00;94769.31;5096136;28;20451;-69
2021/08/30 04:51:37;;;;;;;3.38;1.92;;;;;;;12.38;100.00;94781.94;5097791;28;20040;-69
2021/08/30 04:54:04;;;;;;;2.92;1.85;;;;;;;12.41;100.00;94781.47;5095566;28;20096;-68
2021/08/30 04:56:30;;;;;;;4.07;2.10;;;;;;;12.46;100.00;94782.53;5100842;28;20044;-69
2021/08/30 04:58:57;;;;;;;4.00;2.53;;;;;;;12.38;100.00;94787.16;5102116;28;20032;-69
2021/08/30 05:01:25;;;;;;;2.53;1.50;;;;;;;12.47;100.00;94784.13;5097752;28;20036;-69
2021/08/30 05:03:53;;;;;;;3.15;1.70;;;;;;;12.35;100.00;94787.66;5096483;28;20067;-69
2021/08/30 05:06:20;;;;;;;2.22;1.25;;;;;;;12.39;100.00;94777.53;5094867;28;20485;-69
2021/08/30 05:08:47;;;;;;;2.28;1.92;;;;;;;12.33;100.00;94779.25;5096974;28;20044;-69
2021/08/30 05:11:13;;;;;;;4.78;2.13;;;;;;;12.42;100.00;94783.06;5094794;28;20054;-69
2021/08/30 05:13:40;;;;;;;2.58;1.77;;;;;;;12.51;100.00;94777.38;5099628;28;20493;-69
2021/08/30 05:16:07;;;;;;;3.33;1.63;;;;;;;12.54;100.00;94784.75;5097202;28;20044;-69
2021/08/30 05:18:35;;;;;;;2.40;1.30;;;;;;;12.50;100.00;94773.22;5100721;28;20390;-68
2021/08/30 05:21:03;;;;;;;3.38;2.53;;;;;;;12.60;100.00;94788.97;5094829;28;20040;-68
2021/08/30 05:23:31;;;;;;;4.22;1.88;;;;;;;12.64;100.00;94790.09;5095023;28;20078;-68
2021/08/30 05:25:58;;;;;;;2.85;2.50;;;;;;;12.75;100.00;94791.78;5094141;28;20043;-69
2021/08/30 05:28:25;;;;;;;2.92;1.92;;;;;;;12.79;100.00;94798.09;5100459;28;20059;-69
2021/08/30 05:30:52;;;;;;;2.85;2.33;;;;;;;12.87;100.00;94799.47;5099919;28;20255;-69
2021/08/30 05:33:23;;;;;;;3.33;2.15;;;;;;;12.92;100.00;94791.69;5094437;28;20038;-68
2021/08/30 05:36:18;;;;;;;4.53;2.60;;;;;;;12.92;100.00;94781.22;5094190;28;20049;-69
2021/08/30 05:38:45;;;;;;;3.45;2.25;;;;;;;13.06;100.00;94786.06;5093641;28;20400;-69
2021/08/30 05:41:11;;;;;;;4.20;1.73;;;;;;;13.11;100.00;94794.75;5101632;28;20043;-69
2021/08/30 05:43:38;;;;;;;3.45;1.70;;;;;;;13.20;100.00;94793.25;5095860;28;20420;-69
2021/08/30 05:46:05;;;;;;;3.53;2.08;;;;;;;13.31;100.00;94796.00;5096103;28;20051;-69
2021/08/30 05:48:32;;;;;;;5.28;2.22;;;;;;;13.42;100.00;94795.06;5099473;28;20216;-69
2021/08/30 05:50:58;;;;;;;5.68;1.80;;;;;;;13.42;100.00;94789.81;5096541;28;20039;-69
2021/08/30 05:53:25;;;;;;;3.72;1.27;;;;;;;13.63;100.00;94795.19;5096084;28;20052;-69
2021/08/30 05:55:52;;;;;;;4.60;1.95;;;;;;;13.64;100.00;94791.56;5105538;28;20051;-69
2021/08/30 05:58:29;;;;;;;3.42;2.25;;;;;;;13.70;100.00;94801.81;5092240;28;20055;-69
2021/08/30 06:01:00;;;;;;;4.28;1.88;;;;;;;13.75;100.00;94808.91;5085559;28;21550;-69
2021/08/30 06:03:33;;;;;;;2.33;1.55;;;;;;;13.76;100.00;94802.66;5078631;28;20047;-69
2021/08/30 06:06:10;;;;;;;2.53;1.85;;;;;;;13.80;100.00;94801.09;5084078;28;20481;-69
2021/08/30 06:08:45;;;;;;;3.83;2.15;;;;;;;13.92;100.00;94803.53;5095578;28;20039;-69
2021/08/30 06:11:21;;;;;;;2.78;1.73;;;;;;;13.92;100.00;94793.06;5089250;28;20055;-68
2021/08/30 06:13:49;;;;;;;2.67;1.63;;;;;;;14.04;100.00;94795.47;5090271;28;20114;-68
2021/08/30 06:16:17;;;;;;;3.63;2.15;;;;;;;14.28;100.00;94806.38;5095532;28;20531;-69
2021/08/30 06:18:45;;;;;;;4.30;2.15;;;;;;;14.39;100.00;94808.00;5097537;28;20417;-69
2021/08/30 06:21:12;;;;;;;4.45;1.98;;;;;;;14.47;98.22;94809.31;5096153;28;20047;-69
2021/08/30 06:23:39;;;;;;;2.88;1.58;;;;;;;14.51;98.50;94799.91;5091979;28;20507;-69
2021/08/30 06:26:06;;;;;;;2.72;1.95;;;;;;;14.45;97.01;94785.22;5094432;28;20032;-69
2021/08/30 06:28:33;;;;;;;1.88;1.42;;;;;;;14.65;95.45;94806.28;5088183;28;20040;-69
2021/08/30 06:30:59;;;;;;;2.40;1.65;;;;;;;14.58;94.63;94810.97;5093167;28;20124;-69
2021/08/30 06:33:26;;;;;;;2.40;1.65;;;;;;;14.66;94.48;94815.72;5095781;28;20040;-69
2021/08/30 06:35:53;;;;;;;4.05;1.92;;;;;;;14.75;95.35;94789.00;5096647;28;20047;-69
2021/08/30 06:38:21;;;;;;;3.38;1.95;;;;;;;14.85;93.44;94799.53;5093022;28;20489;-69
2021/08/30 06:40:47;;;;;;;3.55;1.42;;;;;;;15.04;92.42;94808.50;5091110;28;20043;-69
2021/08/30 06:43:14;;;;;;;2.80;1.60;;;;;;;15.14;93.92;94806.94;5095194;28;20040;-69
2021/08/30 06:45:41;;;;;;;2.10;1.20;;;;;;;15.22;91.45;94809.06;5094036;28;20435;-69
2021/08/30 06:48:08;;;;;;;1.85;1.10;;;;;;;15.42;91.08;94814.34;5093498;28;20035;-69
2021/08/30 06:50:35;;;;;;;2.33;1.23;;;;;;;15.44;89.97;94806.97;5094591;28;20040;-69
2021/08/30 06:53:02;;;;;;;4.07;2.00;;;;;;;15.66;90.99;94824.31;5091424;28;20040;-69
2021/08/30 06:55:29;;;;;;;2.20;1.55;;;;;;;15.74;88.26;94826.47;5094972;28;20057;-69
2021/08/30 06:57:57;;;;;;;3.30;2.47;;;;;;;15.89;88.80;94812.53;5092547;28;20052;-68
2021/08/30 07:00:25;;;;;;;2.67;1.63;;;;;;;15.98;87.56;94805.69;5092640;28;20479;-69
2021/08/30 07:02:54;;;;;;;2.90;1.50;;;;;;;15.98;84.50;94800.41;5097544;28;20122;-69
2021/08/30 07:05:22;;;;;;;3.13;1.45;;;;;;;16.18;85.94;94810.09;5100917;28;20044;-69
2021/08/30 07:07:48;;;;;;;2.30;1.85;;;;;;;16.22;85.11;94805.91;5094721;28;20036;-68
2021/08/30 07:10:15;;;;;;;2.63;1.67;;;;;;;16.44;86.40;94807.44;5099331;28;20048;-69
2021/08/30 07:12:42;;;;;;;3.17;2.17;;;;;;;16.57;82.37;94817.38;5091925;28;20417;-69
2021/08/30 07:15:09;;;;;;;2.50;2.13;;;;;;;16.56;82.06;94825.50;5104932;28;20054;-70
2021/08/30 07:17:36;;;;;;;2.58;1.23;;;;;;;16.69;83.10;94818.88;5098656;28;20036;-69
2021/08/30 07:20:03;;;;;;;2.08;1.23;;;;;;;16.67;80.43;94815.75;5095037;28;20035;-69
2021/08/30 07:22:30;;;;;;;3.03;1.73;;;;;;;16.71;81.09;94806.25;5096005;28;20043;-69
2021/08/30 07:24:57;;;;;;;3.45;1.20;;;;;;;16.77;81.74;94818.34;5098531;28;20043;-69
2021/08/30 07:27:24;;;;;;;2.47;1.70;;;;;;;16.84;79.69;94824.13;5099254;28;20048;-69
2021/08/30 07:29:51;;;;;;;2.35;1.42;;;;;;;16.94;78.75;94831.97;5097371;28;20036;-69
2021/08/30 07:32:18;;;;;;;2.10;1.45;;;;;;;16.94;80.94;94810.94;5097618;28;20051;-70
2021/08/30 07:34:45;;;;;;;2.45;1.77;;;;;;;17.05;78.21;94826.66;5096211;28;20382;-70
2021/08/30 07:37:12;;;;;;;2.58;1.50;;;;;;;16.96;79.47;94811.44;5096929;28;20039;-70
2021/08/30 07:39:39;;;;;;;2.55;1.67;;;;;;;17.16;79.81;94820.25;5098588;28;20044;-69
2021/08/30 07:42:06;;;;;;;2.58;1.50;;;;;;;17.19;80.43;94811.84;5103923;28;20040;-69
2021/08/30 07:44:33;;;;;;;2.92;1.88;;;;;;;17.43;77.52;94813.78;5099604;28;20047;-69
2021/08/30 07:47:00;;;;;;;3.22;1.52;;;;;;;17.57;76.92;94833.16;5094398;28;20402;-70
2021/08/30 07:49:27;;;;;;;6.65;1.60;;;;;;;17.66;78.54;94818.34;5098205;28;20528;-69
2021/08/30 07:51:54;;;;;;;2.80;1.65;;;;;;;17.87;76.28;94832.19;5093520;28;20065;-69
2021/08/30 07:54:21;;;;;;;4.15;3.00;;;;;;;17.78;77.56;94813.50;5096668;28;20052;-70
2021/08/30 07:56:48;;;;;;;1.70;1.23;;;;;;;17.95;75.53;94818.41;5105034;28;20524;-69
2021/08/30 07:59:14;;;;;;;5.47;1.98;;;;;;;18.10;74.38;94830.66;5096236;28;20492;-70
2021/08/30 08:01:41;;;;;;;3.70;2.05;;;;;;;18.12;73.93;94828.53;5099171;28;20051;-71
2021/08/30 08:04:09;;;;;;;2.53;1.58;;;;;;;18.24;73.81;94824.72;5096112;28;20122;-70
2021/08/30 08:06:35;;;;;;;3.50;2.00;;;;;;;18.48;75.42;94825.53;5095033;28;20463;-71
2021/08/30 08:09:04;;;;;;;2.15;1.52;;;;;;;18.72;73.67;94840.56;5099189;28;20123;-71
2021/08/30 08:11:31;;;;;;;2.42;1.25;;;;;;;18.76;72.02;94822.31;5098114;27;20517;-71
2021/08/30 08:13:58;;;;;;;1.67;1.15;;;;;;;18.76;71.98;94820.47;5100469;28;20051;-71
2021/08/30 08:16:25;;;;;;;2.50;1.45;;;;;;;18.88;71.75;94828.78;5103426;28;20043;-71
2021/08/30 08:18:53;;;;;;;2.55;1.60;;;;;;;19.18;69.68;94832.13;5087429;28;20093;-70
2021/08/30 08:21:21;;;;;;;1.98;1.42;;;;;;;19.25;68.32;94832.53;5098102;28;20051;-71
2021/08/30 08:23:48;;;;;;;2.15;1.70;;;;;;;19.32;68.30;94836.66;5097670;28;20100;-71
2021/08/30 08:26:15;;;;;;;2.00;1.33;;;;;;;19.34;68.16;94829.25;5097217;28;20047;-71
2021/08/30 08:28:42;;;;;;;2.08;1.13;;;;;;;19.41;68.15;94814.63;5101532;28;20036;-70
2021/08/30 08:31:09;;;;;;;3.65;2.42;;;;;;;19.31;66.89;94835.13;5097054;28;20032;-71
2021/08/30 08:33:35;;;;;;;2.15;1.60;;;;;;;19.38;68.65;94831.03;5100098;28;20040;-70
2021/08/30 08:36:02;;;;;;;2.47;1.75;;;;;;;19.45;69.13;94828.03;5099902;28;20044;-70
2021/08/30 08:38:34;;;;;;;3.97;2.50;;;;;;;19.71;68.88;94827.66;5098340;28;20111;-70
2021/08/30 08:41:00;;;;;;;2.58;1.58;;;;;;;19.79;66.20;94834.94;5093840;28;20047;-71
2021/08/30 08:43:29;;;;;;;1.83;1.05;;;;;;;19.65;67.25;94825.09;5089231;28;20047;-70
2021/08/30 08:45:56;;;;;;;3.13;1.55;;;;;;;20.08;68.81;94826.00;5096743;28;20039;-70
2021/08/30 08:48:23;;;;;;;2.00;1.30;;;;;;;20.12;64.00;94827.00;5095053;28;20122;-70
2021/08/30 08:50:50;;;;;;;4.28;1.25;;;;;;;20.13;64.76;94836.50;5095165;28;20406;-70
2021/08/30 08:53:17;;;;;;;2.15;1.45;;;;;;;19.96;65.23;94835.19;5096457;27;20056;-70
2021/08/30 08:55:44;;;;;;;2.38;1.50;;;;;;;19.91;63.70;94819.41;5094918;28;20036;-70
2021/08/30 08:58:13;;;;;;;3.17;1.33;;;;;;;20.17;66.05;94829.56;5094222;28;20048;-70
2021/08/30 09:00:42;;;;;;;6.45;2.50;;;;;;;20.38;67.37;94825.50;5092455;28;20541;-70
2021/08/30 09:03:18;;;;;;;2.72;1.45;;;;;;;20.37;63.01;94829.19;5101109;27;20139;-69
2021/08/30 09:05:45;;;;;;;3.60;2.55;;;;;;;20.44;63.93;94826.97;5094902;28;20570;-69
2021/08/30 09:08:27;;;;;;;2.03;1.30;;;;;;;20.48;64.12;94816.56;5094327;28;20047;-70
2021/08/30 09:10:55;;;;;;;2.13;1.52;;;;;;;20.64;62.77;94821.63;5091950;28;20035;-70
2021/08/30 09:13:31;;;;;;;2.13;1.58;;;;;;;21.03;63.24;94802.56;5096128;28;20047;-70
2021/08/30 09:15:59;;;;;;;2.22;1.40;;;;;;;21.31;61.30;94818.38;5092217;28;20094;-70
2021/08/30 09:18:31;;;;;;;2.08;1.48;;;;;;;21.60;61.23;94817.22;5093249;28;20087;-69
2021/08/30 09:21:09;;;;;;;2.30;1.45;;;;;;;21.53;60.95;94823.69;5090894;28;20056;-70
2021/08/30 09:23:40;;;;;;;2.95;2.13;;;;;;;21.42;58.62;94811.75;5094229;28;20551;-70
2021/08/30 09:26:13;;;;;;;1.80;1.27;;;;;;;21.21;58.99;94806.13;5094408;28;20055;-70
2021/08/30 09:28:41;;;;;;;1.88;1.30;;;;;;;21.40;59.03;94813.91;5097476;28;20044;-70
2021/08/30 09:31:09;;;;;;;1.92;1.20;;;;;;;21.36;57.99;94823.56;5093130;28;20062;-70
2021/08/30 09:33:46;;;;;;;3.22;1.73;;;;;;;21.44;58.86;94814.09;5096847;28;20048;-70
2021/08/30 09:36:13;;;;;;;2.95;2.00;;;;;;;21.53;56.21;94813.09;5093233;28;20054;-69
2021/08/30 09:38:40;;;;;;;5.43;2.58;;;;;;;21.71;55.70;94805.28;5092457;28;20047;-70
2021/08/30 09:41:11;;;;;;;3.03;1.52;;;;;;;21.81;55.73;94815.66;5095225;28;20043;-69
2021/08/30 09:43:37;;;;;;;2.53;1.83;;;;;;;22.01;55.45;94814.38;5094074;28;20051;-70
2021/08/30 09:46:06;;;;;;;5.05;3.25;;;;;;;22.47;54.59;94809.75;5098046;28;20044;-71
2021/08/30 09:48:34;;;;;;;2.58;1.77;;;;;;;22.53;53.10;94813.84;5096580;28;20085;-71
2021/08/30 09:51:03;;;;;;;2.90;1.50;;;;;;;22.40;53.63;94817.38;5092051;28;20051;-71
2021/08/30 09:53:32;;;;;;;2.80;1.80;;;;;;;22.18;52.83;94808.34;5096255;28;20044;-71
2021/08/30 09:56:01;;;;;;;2.80;1.75;;;;;;;22.68;55.45;94810.78;5096745;28;20961;-70
2021/08/30 09:58:29;;;;;;;3.05;2.25;;;;;;;22.86;52.78;94821.44;5087629;28;20050;-70
2021/08/30 10:01:00;;;;;;;2.83;1.67;;;;;;;22.92;52.82;94820.19;5095762;28;20036;-71
2021/08/30 10:03:39;;;;;;;6.07;2.88;;;;;;;22.88;52.96;94816.59;5092619;28;20054;-70
2021/08/30 10:06:08;;;;;;;2.28;1.52;;;;;;;23.25;52.81;94807.31;5089992;28;20039;-71
2021/08/30 10:08:38;;;;;;;2.28;1.42;;;;;;;23.47;49.44;94814.34;5093121;28;20043;-71
2021/08/30 10:11:05;;;;;;;3.38;2.03;;;;;;;23.45;50.55;94808.56;5091037;28;20044;-69
2021/08/30 10:13:32;;;;;;;2.60;2.30;;;;;;;23.53;48.88;94811.53;5094121;28;20047;-70
2021/08/30 10:16:00;;;;;;;2.97;1.83;;;;;;;23.61;50.01;94798.25;5093143;28;20198;-70
2021/08/30 10:18:27;;;;;;;2.65;1.73;;;;;;;24.09;49.26;94812.41;5096403;28;20032;-70
2021/08/30 10:20:54;;;;;;;6.03;3.67;;;;;;;24.35;48.96;94814.25;5097293;28;20366;-70
2021/08/30 10:23:22;;;;;;;3.03;1.95;;;;;;;24.36;46.02;94815.78;5094302;28;20050;-70
2021/08/30 10:25:58;;;;;;;2.83;2.05;;;;;;;24.03;45.15;94811.03;5090300;28;20048;-69
2021/08/30 10:28:36;;;;;;;2.60;1.73;;;;;;;24.18;45.95;94804.41;5094666;28;20504;-70
2021/08/30 10:31:18;;;;;;;2.53;1.70;;;;;;;24.70;44.42;94803.47;5091119;28;20044;-70
2021/08/30 10:33:49;;;;;;;2.50;1.40;;;;;;;24.72;45.05;94809.25;5091674;28;20040;-70
2021/08/30 10:36:20;;;;;;;2.38;1.23;;;;;;;25.05;43.92;94797.91;5087831;28;20480;-70
2021/08/30 10:39:16;;;;;;;4.10;1.73;;;;;;;25.29;42.11;94811.44;5091240;28;20036;-69
2021/08/30 10:41:44;;;;;;;2.60;1.40;;;;;;;24.99;42.64;94806.13;5069763;28;20059;-69
2021/08/30 10:44:17;;;;;;;3.72;1.85;;;;;;;25.07;41.04;94806.41;5093429;28;20051;-69
2021/08/30 10:46:50;;;;;;;2.33;1.67;;;;;;;25.10;41.65;94811.06;5092274;28;20123;-69
2021/08/30 10:49:26;;;;;;;4.40;1.60;;;;;;;25.19;40.47;94801.13;5094193;28;20516;-69
2021/08/30 10:52:08;;;;;;;2.28;1.42;;;;;;;25.51;41.46;94782.88;5095049;28;20036;-69
2021/08/30 10:54:34;;;;;;;2.75;1.38;;;;;;;25.79;40.56;94798.34;5092808;28;20040;-69
2021/08/30 10:57:03;;;;;;;2.17;1.30;;;;;;;25.68;39.49;94804.06;5093169;28;20529;-69
2021/08/30 10:59:31;;;;;;;2.45;1.27;;;;;;;26.01;41.59;94799.88;5091119;28;20040;-69
2021/08/30 11:02:01;;;;;;;1.77;1.63;;;;;;;26.39;37.81;94804.94;5096545;28;20050;-70
2021/08/30 11:04:41;;;;;;;1.30;0.93;;;;;;;26.48;35.24;94808.28;5097858;28;20122;-70
2021/08/30 11:07:08;;;;;;;1.88;1.10;;;;;;;26.63;35.04;94803.41;5093450;28;20527;-70
2021/08/30 11:09:36;;;;;;;1.98;1.40;;;;;;;26.41;37.15;94808.03;5092948;28;20032;-70
2021/08/30 11:12:14;;;;;;;2.08;1.40;;;;;;;26.56;36.22;94814.63;5095578;28;20047;-70
2021/08/30 11:14:40;;;;;;;2.10;0.95;;;;;;;26.64;35.72;94799.63;5093415;28;21630;-70
2021/08/30 11:17:13;;;;;;;1.40;1.00;;;;;;;26.93;33.20;94805.88;5093065;28;20058;-69
2021/08/30 11:19:40;;;;;;;3.80;1.08;;;;;;;26.94;32.93;94804.72;5094398;28;20165;-70
2021/08/30 11:22:07;;;;;;;1.90;1.10;;;;;;;26.79;34.03;94806.19;5091616;28;20036;-70
2021/08/30 11:24:36;;;;;;;2.13;1.17;;;;;;;26.78;33.92;94800.09;5098308;28;20044;-69
2021/08/30 11:27:10;;;;;;;1.85;1.52;;;;;;;26.68;33.45;94816.56;5094035;28;20044;-70
2021/08/30 11:29:50;;;;;;;2.00;1.35;;;;;;;26.65;33.73;94801.19;5099553;28;20055;-70
2021/08/30 11:32:19;;;;;;;2.33;1.40;;;;;;;26.94;34.14;94799.38;5092226;28;20052;-71
2021/08/30 11:34:46;;;;;;;1.05;0.70;;;;;;;27.17;31.77;94805.84;5094461;28;20398;-70
2021/08/30 11:37:23;;;;;;;1.13;0.90;;;;;;;27.33;33.41;94808.59;5094376;28;20104;-71
2021/08/30 11:39:52;;;;;;;1.38;1.05;;;;;;;27.43;32.32;94812.69;5096529;28;20066;-71
2021/08/30 11:42:21;;;;;;;1.40;0.85;;;;;;;27.89;31.34;94807.81;5095629;28;20052;-70